Time;durP1;ratioP1;P1;durP2;ratioP2;P2;SDS_P1;SDS_P2;PMS_P1;PMS_P2;Temp;Humidity;BMP_temperature;BMP_pressure;BME280_temperature;BME280_humidity;BME280_pressure;Samples;Min_cycle;Max_cycle;Signal;HPM_P1;HPM_P2
2022/01/15 00:02:26;;;;;;;45.47;5.60;;;0.60;99.90;;;;;;5066621;28;20055;-77
2022/01/15 00:04:53;;;;;;;42.92;5.72;;;0.60;99.90;;;;;;5066267;28;20132;-77
2022/01/15 00:07:19;;;;;;;51.42;5.82;;;0.60;99.90;;;;;;5066591;28;20496;-77
2022/01/15 00:09:49;;;;;;;45.00;5.95;;;0.50;99.90;;;;;;5064736;28;20091;-77
2022/01/15 00:12:16;;;;;;;50.38;6.30;;;0.60;99.90;;;;;;5066559;28;20147;-77
2022/01/15 00:14:43;;;;;;;43.92;5.03;;;0.40;99.90;;;;;;5066250;28;20527;-77
2022/01/15 00:17:18;;;;;;;30.55;4.97;;;0.30;99.90;;;;;;5065298;28;20076;-77
2022/01/15 00:19:46;;;;;;;;;;;0.30;99.90;;;;;;5065439;28;20127;-77
2022/01/15 00:22:15;;;;;;;50.78;5.47;;;0.30;99.90;;;;;;5066296;28;20360;-77
2022/01/15 00:24:43;;;;;;;26.25;5.47;;;0.20;99.90;;;;;;5067222;28;20132;-77
2022/01/15 00:27:10;;;;;;;48.63;6.82;;;0.10;99.90;;;;;;5065465;28;20120;-77
2022/01/15 00:29:37;;;;;;;46.78;6.07;;;0.10;99.90;;;;;;5066155;28;20434;-77
2022/01/15 00:32:06;;;;;;;42.92;5.43;;;0.10;99.90;;;;;;5066354;28;20052;-77
2022/01/15 00:34:33;;;;;;;29.92;5.90;;;0.10;99.90;;;;;;5065126;28;20131;-77
2022/01/15 00:37:01;;;;;;;68.20;7.43;;;0.00;99.90;;;;;;5068114;28;20113;-77
2022/01/15 00:39:28;;;;;;;39.15;7.32;;;0.00;99.90;;;;;;5065418;28;20041;-77
2022/01/15 00:41:55;;;;;;;61.25;7.68;;;0.00;99.90;;;;;;5065435;28;20075;-77
2022/01/15 00:44:21;;;;;;;58.17;7.80;;;0.00;99.90;;;;;;5066051;28;20461;-77
2022/01/15 00:46:49;;;;;;;57.78;9.80;;;0.00;99.90;;;;;;5066149;28;20126;-77
2022/01/15 00:49:16;;;;;;;55.00;8.40;;;0.10;99.90;;;;;;5066061;28;20063;-77
2022/01/15 00:51:43;;;;;;;65.65;10.05;;;0.10;99.90;;;;;;5065722;28;20135;-77
2022/01/15 00:54:10;;;;;;;54.40;8.23;;;0.20;99.90;;;;;;5064903;28;20049;-77
2022/01/15 00:56:37;;;;;;;42.30;6.80;;;0.20;99.90;;;;;;5065365;28;20064;-76
2022/01/15 00:59:03;;;;;;;61.10;8.32;;;0.20;99.90;;;;;;5064063;28;20048;-76
2022/01/15 01:01:30;;;;;;;47.35;7.32;;;0.20;99.90;;;;;;5065270;28;20148;-76
2022/01/15 01:03:57;;;;;;;67.55;7.07;;;0.20;99.90;;;;;;5065301;28;20052;-76
2022/01/15 01:06:24;;;;;;;54.63;8.05;;;0.30;99.90;;;;;;5065647;28;20071;-76
2022/01/15 01:08:51;;;;;;;52.78;7.75;;;0.20;99.90;;;;;;5070266;28;20051;-77
2022/01/15 01:11:28;;;;;;;53.15;6.65;;;0.30;99.90;;;;;;5071077;28;20091;-76
2022/01/15 01:22:52;;;;;;;60.50;5.70;;;0.60;99.90;;;;;;5068691;28;20059;-76
2022/01/15 01:24:58;;;;;;;46.13;7.45;;;0.70;99.90;;;;;;5068982;28;20058;-77
2022/01/15 01:27:42;;;;;;;52.08;5.97;;;0.70;99.90;;;;;;5068396;28;20088;-76
2022/01/15 01:30:20;;;;;;;45.03;5.35;;;0.60;99.90;;;;;;5067558;28;20132;-77
2022/01/15 01:33:04;;;;;;;51.20;5.93;;;0.60;99.90;;;;;;5068652;28;20056;-77
2022/01/15 01:35:39;;;;;;;46.72;5.45;;;0.50;99.90;;;;;;5068294;28;20048;-77
2022/01/15 01:38:29;;;;;;;49.92;5.90;;;0.50;99.90;;;;;;5070206;28;20044;-76
2022/01/15 01:40:58;;;;;;;44.42;6.07;;;0.50;99.90;;;;;;5068497;28;20524;-77
2022/01/15 01:43:41;;;;;;;44.35;6.35;;;0.40;99.90;;;;;;5068769;28;20154;-77
2022/01/15 01:46:20;;;;;;;53.55;4.80;;;0.30;99.90;;;;;;5067477;28;20051;-76
2022/01/15 01:48:47;;;;;;;51.67;5.82;;;0.30;99.90;;;;;;5068685;28;20485;-76
2022/01/15 01:51:31;;;;;;;50.33;6.53;;;0.40;99.90;;;;;;5069358;28;20048;-76
2022/01/15 01:54:00;;;;;;;45.40;5.40;;;0.40;99.90;;;;;;5068630;28;20087;-76
2022/01/15 01:56:27;;;;;;;58.05;6.15;;;0.40;99.90;;;;;;5067952;28;20143;-76
2022/01/15 01:58:55;;;;;;;42.15;5.57;;;0.40;99.90;;;;;;5068375;28;20131;-76
2022/01/15 02:01:22;;;;;;;35.95;4.88;;;0.40;99.90;;;;;;5067863;28;20129;-77
2022/01/15 02:03:49;;;;;;;34.33;6.50;;;0.40;99.90;;;;;;5064423;28;20148;-77
2022/01/15 02:06:17;;;;;;;52.65;5.45;;;0.40;99.90;;;;;;5067439;28;20051;-76
2022/01/15 02:08:45;;;;;;;48.90;5.60;;;0.50;99.90;;;;;;5066957;28;20845;-76
2022/01/15 02:11:12;;;;;;;49.00;5.65;;;0.50;99.90;;;;;;5066220;28;20041;-76
2022/01/15 02:13:41;;;;;;;41.50;5.43;;;0.60;99.90;;;;;;5067929;28;20159;-76
2022/01/15 02:16:09;;;;;;;40.17;5.20;;;0.50;99.90;;;;;;5067363;28;20098;-76
2022/01/15 02:18:37;;;;;;;46.63;5.82;;;0.50;99.90;;;;;;5067927;28;20063;-76
2022/01/15 02:23:46;;;;;;;49.72;5.82;;;0.40;99.90;;;;;;5057278;28;20076;-76
2022/01/15 02:26:19;;;;;;;45.75;6.05;;;0.40;99.90;;;;;;5067434;28;20058;-77
2022/01/15 02:28:57;;;;;;;52.72;5.03;;;0.40;99.90;;;;;;5066797;28;20053;-77
2022/01/15 02:31:26;;;;;;;48.95;6.03;;;0.40;99.90;;;;;;5067620;28;20789;-77
2022/01/15 02:33:56;;;;;;;56.80;5.57;;;0.30;99.90;;;;;;5066031;28;20489;-76
2022/01/15 02:36:28;;;;;;;44.58;6.70;;;0.40;99.90;;;;;;5067250;28;20054;-77
2022/01/15 02:38:57;;;;;;;63.17;5.28;;;0.30;99.90;;;;;;5067567;28;20639;-76
2022/01/15 02:41:35;;;;;;;76.30;6.97;;;0.30;99.90;;;;;;5059697;28;20151;-77
2022/01/15 02:44:10;;;;;;;49.63;7.45;;;0.30;99.90;;;;;;5081901;28;20128;-77
2022/01/15 02:49:17;;;;;;;48.88;6.22;;;0.20;99.90;;;;;;5062075;28;20085;-77
2022/01/15 02:51:44;;;;;;;52.20;6.45;;;0.30;99.90;;;;;;5065562;28;20139;-76
2022/01/15 02:54:11;;;;;;;49.80;5.82;;;0.30;99.90;;;;;;5067026;28;20834;-77
2022/01/15 02:56:42;;;;;;;72.55;8.00;;;0.30;99.90;;;;;;5064039;28;20119;-76
2022/01/15 02:59:22;;;;;;;55.10;6.13;;;0.30;99.90;;;;;;5067216;28;20157;-77
2022/01/15 03:01:49;;;;;;;56.10;6.10;;;0.30;99.90;;;;;;5065773;28;20139;-76
2022/01/15 03:04:17;;;;;;;52.67;5.55;;;0.30;99.90;;;;;;5066326;28;20055;-76
2022/01/15 03:06:44;;;;;;;59.38;5.97;;;0.30;99.90;;;;;;5068586;28;20788;-76
2022/01/15 03:09:10;;;;;;;57.10;6.90;;;0.30;99.90;;;;;;5067612;28;20054;-77
2022/01/15 03:11:37;;;;;;;59.00;6.50;;;0.30;99.90;;;;;;5065499;28;20131;-76
2022/01/15 03:14:04;;;;;;;40.35;5.53;;;0.30;99.90;;;;;;5065083;28;20050;-76
2022/01/15 03:16:31;;;;;;;58.38;5.88;;;0.20;99.90;;;;;;5066671;28;20159;-76
2022/01/15 03:19:00;;;;;;;48.53;6.55;;;0.20;99.90;;;;;;5063025;28;20063;-76
2022/01/15 03:21:27;;;;;;;59.78;6.35;;;0.10;99.90;;;;;;5064558;28;20430;-76
2022/01/15 03:23:54;;;;;;;39.40;5.75;;;0.10;99.90;;;;;;5066273;28;20084;-76
2022/01/15 03:26:20;;;;;;;52.63;6.57;;;0.00;99.90;;;;;;5065732;28;20755;-76
2022/01/15 03:28:47;;;;;;;49.33;5.28;;;0.00;99.90;;;;;;5066759;28;20066;-76
2022/01/15 03:31:14;;;;;;;51.13;6.05;;;-0.10;99.90;;;;;;5065997;28;20123;-76
2022/01/15 03:33:41;;;;;;;40.35;5.20;;;-0.10;99.90;;;;;;5057191;28;20048;-77
2022/01/15 03:36:08;;;;;;;50.85;6.53;;;-0.10;99.90;;;;;;5066374;28;20051;-76
2022/01/15 03:38:35;;;;;;;54.72;7.05;;;-0.20;99.90;;;;;;5066048;28;20125;-77
2022/01/15 03:41:02;;;;;;;62.60;5.53;;;-0.20;99.90;;;;;;5066948;28;20052;-77
2022/01/15 03:43:29;;;;;;;59.92;7.03;;;-0.20;99.90;;;;;;5066645;28;20135;-77
2022/01/15 03:45:56;;;;;;;51.03;5.88;;;-0.30;99.90;;;;;;5066386;28;20084;-76
2022/01/15 03:48:25;;;;;;;53.20;6.22;;;-0.40;99.90;;;;;;5064309;28;20116;-76
2022/01/15 03:50:52;;;;;;;50.92;6.45;;;-0.40;99.90;;;;;;5064687;28;20147;-77
2022/01/15 03:53:21;;;;;;;48.22;6.78;;;-0.40;99.90;;;;;;5065511;28;20048;-77
2022/01/15 03:55:49;;;;;;;39.88;6.03;;;-0.50;99.90;;;;;;5066032;28;20797;-77
2022/01/15 03:58:16;;;;;;;49.65;6.32;;;-0.50;99.90;;;;;;5066072;28;20080;-77
2022/01/15 04:00:43;;;;;;;37.45;4.70;;;-0.50;99.90;;;;;;5049800;28;20136;-77
2022/01/15 04:03:10;;;;;;;67.53;7.18;;;-0.60;99.90;;;;;;5065989;28;20051;-77
2022/01/15 04:05:36;;;;;;;49.22;6.47;;;-0.40;99.90;;;;;;5066768;28;20095;-76
2022/01/15 04:08:05;;;;;;;53.40;7.15;;;-0.30;99.90;;;;;;5064439;28;20164;-76
2022/01/15 04:10:32;;;;;;;47.88;8.25;;;-0.30;99.90;;;;;;5065785;28;20146;-76
2022/01/15 04:12:59;;;;;;;34.17;7.88;;;-0.20;99.90;;;;;;5065640;28;20143;-76
2022/01/15 04:15:26;;;;;;;59.38;8.07;;;-0.20;99.90;;;;;;5065515;28;20101;-76
2022/01/15 04:17:53;;;;;;;44.42;7.68;;;0.00;99.90;;;;;;5065852;28;20135;-77
2022/01/15 04:20:22;;;;;;;47.83;6.82;;;-0.20;99.90;;;;;;5064303;28;20128;-76
2022/01/15 04:22:51;;;;;;;58.50;8.50;;;-0.20;99.90;;;;;;5064937;28;20135;-77
2022/01/15 04:25:18;;;;;;;42.25;8.52;;;-0.20;99.90;;;;;;5064171;28;20099;-76
2022/01/15 04:27:46;;;;;;;60.22;7.35;;;-0.30;99.90;;;;;;5063551;28;20159;-76
2022/01/15 04:30:15;;;;;;;56.90;7.70;;;-0.30;99.90;;;;;;5063596;28;20773;-76
2022/01/15 04:32:42;;;;;;;53.83;6.40;;;-0.30;99.90;;;;;;5064709;28;20132;-76
2022/01/15 04:35:09;;;;;;;52.58;6.35;;;-0.30;99.90;;;;;;5065398;28;20670;-76
2022/01/15 04:37:46;;;;;;;72.50;6.85;;;-0.30;99.90;;;;;;5065477;28;20450;-76
2022/01/15 04:40:16;;;;;;;52.03;7.20;;;-0.20;99.90;;;;;;5064897;28;20051;-76
2022/01/15 04:42:43;;;;;;;66.88;6.90;;;-0.10;99.90;;;;;;5065100;28;20080;-76
2022/01/15 04:45:10;;;;;;;38.15;6.88;;;0.00;99.90;;;;;;5065449;28;20136;-76
2022/01/15 04:47:37;;;;;;;59.38;6.90;;;0.00;99.90;;;;;;5065053;28;20051;-76
2022/01/15 04:50:08;;;;;;;64.18;7.00;;;0.00;99.90;;;;;;5062933;28;20058;-76
2022/01/15 04:52:36;;;;;;;51.90;6.53;;;0.00;99.90;;;;;;5063822;28;20104;-76
2022/01/15 04:55:04;;;;;;;55.67;6.35;;;0.00;99.90;;;;;;5071746;28;20074;-76
2022/01/15 04:57:31;;;;;;;63.85;7.13;;;0.00;99.90;;;;;;5067917;28;20076;-76
2022/01/15 04:59:58;;;;;;;47.40;6.32;;;-0.10;99.90;;;;;;5064698;28;20136;-76
2022/01/15 05:02:25;;;;;;;50.78;6.57;;;-0.10;99.90;;;;;;5064431;28;20132;-76
2022/01/15 05:04:52;;;;;;;50.67;6.85;;;-0.10;99.90;;;;;;5064921;28;20124;-76
2022/01/15 05:07:21;;;;;;;46.35;6.50;;;-0.20;99.90;;;;;;5066439;28;20124;-76
2022/01/15 05:09:48;;;;;;;57.10;5.85;;;-0.20;99.90;;;;;;5063694;28;20155;-76
2022/01/15 05:12:28;;;;;;;42.33;6.47;;;-0.20;99.90;;;;;;5063161;28;20159;-76
2022/01/15 05:14:55;;;;;;;48.80;6.15;;;-0.20;99.90;;;;;;5064732;28;20482;-76
2022/01/15 05:17:22;;;;;;;52.35;7.20;;;-0.30;99.90;;;;;;5073563;28;20044;-76
2022/01/15 05:19:50;;;;;;;56.53;6.85;;;-0.30;99.90;;;;;;5064188;28;20488;-76
2022/01/15 05:22:17;;;;;;;39.90;6.25;;;-0.30;99.90;;;;;;5053201;28;20134;-76
2022/01/15 05:24:43;;;;;;;69.95;7.72;;;-0.30;99.90;;;;;;5057869;28;20521;-76
2022/01/15 05:27:10;;;;;;;55.15;7.53;;;-0.40;99.90;;;;;;5058482;28;20041;-76
2022/01/15 05:29:37;;;;;;;60.65;6.32;;;-0.30;99.90;;;;;;5064223;28;20135;-76
2022/01/15 05:32:04;;;;;;;58.92;6.72;;;-0.30;99.90;;;;;;5060257;28;20049;-76
2022/01/15 05:34:39;;;;;;;51.50;6.68;;;-0.30;99.90;;;;;;5063580;28;20127;-76
2022/01/15 05:37:06;;;;;;;42.55;6.10;;;-0.30;99.90;;;;;;5064325;28;20051;-76
2022/01/15 05:39:33;;;;;;;61.30;6.63;;;-0.30;99.90;;;;;;5064122;28;20571;-76
2022/01/15 05:42:00;;;;;;;53.85;5.78;;;-0.30;99.90;;;;;;5063186;28;20106;-76
2022/01/15 05:44:27;;;;;;;57.50;7.00;;;-0.40;99.90;;;;;;5064265;28;20737;-76
2022/01/15 05:46:54;;;;;;;64.05;6.32;;;-0.40;99.90;;;;;;5064518;28;20152;-76
2022/01/15 05:49:20;;;;;;;51.30;6.18;;;-0.40;99.90;;;;;;5064041;28;20044;-76
2022/01/15 05:51:47;;;;;;;54.05;6.15;;;-0.40;99.90;;;;;;5064032;28;20135;-75
2022/01/15 05:54:14;;;;;;;37.55;6.88;;;-0.40;99.90;;;;;;5064271;28;20087;-76
2022/01/15 05:56:41;;;;;;;54.33;6.00;;;-0.40;99.90;;;;;;5066618;28;20533;-76
2022/01/15 05:59:08;;;;;;;47.30;6.47;;;-0.40;99.90;;;;;;5068194;28;20127;-76
2022/01/15 06:01:36;;;;;;;52.78;6.43;;;-0.30;99.90;;;;;;5067277;28;20135;-76
2022/01/15 06:04:04;;;;;;;53.78;7.13;;;-0.10;99.90;;;;;;5065686;28;20135;-76
2022/01/15 06:06:31;;;;;;;62.03;6.38;;;-0.10;99.90;;;;;;5066372;28;20489;-76
2022/01/15 06:08:58;;;;;;;55.28;6.25;;;-0.10;99.90;;;;;;5067401;28;20735;-76
2022/01/15 06:11:24;;;;;;;49.90;5.57;;;-0.10;99.90;;;;;;5069594;28;20054;-75
2022/01/15 06:13:51;;;;;;;63.85;6.18;;;-0.20;99.90;;;;;;5068581;28;20677;-76
2022/01/15 06:16:18;;;;;;;41.63;5.90;;;-0.20;99.90;;;;;;5067898;28;20495;-76
2022/01/15 06:18:46;;;;;;;42.78;5.90;;;-0.30;99.90;;;;;;5064892;28;20061;-76
2022/01/15 06:21:13;;;;;;;36.95;6.07;;;-0.30;99.90;;;;;;5066364;28;20040;-76
2022/01/15 06:23:40;;;;;;;60.33;7.38;;;-0.30;99.90;;;;;;5068356;28;20125;-76
2022/01/15 06:26:07;;;;;;;70.18;5.88;;;-0.40;99.90;;;;;;5067421;28;20072;-76
2022/01/15 06:28:33;;;;;;;61.67;6.90;;;-0.40;99.90;;;;;;5066281;28;20128;-76
2022/01/15 06:31:00;;;;;;;43.90;6.07;;;-0.40;99.90;;;;;;5066863;28;20084;-76
2022/01/15 06:33:31;;;;;;;44.85;7.03;;;-0.40;99.90;;;;;;5065360;28;20079;-76
2022/01/15 06:35:58;;;;;;;61.58;7.15;;;-0.40;99.90;;;;;;5066748;28;20156;-76
2022/01/15 06:38:25;;;;;;;54.78;7.60;;;-0.50;99.90;;;;;;5067458;28;20052;-76
2022/01/15 06:40:52;;;;;;;47.35;6.78;;;-0.50;99.90;;;;;;5063135;28;20143;-76
2022/01/15 06:43:18;;;;;;;58.67;7.25;;;-0.50;99.90;;;;;;5066394;28;20064;-76
2022/01/15 06:45:46;;;;;;;61.08;7.40;;;-0.50;99.90;;;;;;5067375;28;20401;-77
2022/01/15 06:48:12;;;;;;;45.97;8.05;;;-0.40;99.90;;;;;;5058815;28;21638;-74
2022/01/15 06:50:39;;;;;;;47.03;8.27;;;-0.40;99.90;;;;;;5060290;28;20052;-76
2022/01/15 06:53:06;;;;;;;70.80;8.35;;;-0.40;99.90;;;;;;5066872;28;20207;-75
2022/01/15 06:55:34;;;;;;;52.35;8.07;;;-0.30;99.90;;;;;;5066701;28;20541;-76
2022/01/15 06:58:00;;;;;;;51.40;8.45;;;-0.30;99.90;;;;;;5065871;28;20622;-76
2022/01/15 07:00:27;;;;;;;30.50;6.47;;;-0.30;99.90;;;;;;5067236;28;20109;-77
2022/01/15 07:02:54;;;;;;;50.97;8.75;;;-0.30;99.90;;;;;;5062818;28;20040;-78
2022/01/15 07:05:21;;;;;;;49.75;7.93;;;-0.30;99.90;;;;;;5068111;28;20127;-77
2022/01/15 07:07:48;;;;;;;56.05;7.32;;;-0.30;99.90;;;;;;5061436;28;20079;-77
2022/01/15 07:10:15;;;;;;;73.63;8.43;;;-0.30;99.90;;;;;;5069845;28;20464;-77
2022/01/15 07:12:41;;;;;;;66.72;8.57;;;-0.30;99.90;;;;;;5072635;28;20083;-77
2022/01/15 07:15:09;;;;;;;54.28;8.68;;;-0.40;99.90;;;;;;5067401;28;20189;-77
2022/01/15 07:17:44;;;;;;;73.45;8.95;;;-0.20;99.90;;;;;;5066124;28;20545;-78
2022/01/15 07:20:11;;;;;;;;;;;-0.30;99.90;;;;;;5067571;28;20132;-78
2022/01/15 07:22:39;;;;;;;60.50;7.95;;;-0.20;99.90;;;;;;5068609;28;19974;-78
2022/01/15 07:25:08;;;;;;;57.50;8.60;;;-0.30;99.90;;;;;;5071538;28;20143;-79
2022/01/15 07:27:35;;;;;;;66.78;10.57;;;-0.30;99.90;;;;;;5063833;28;20125;-77
2022/01/15 07:30:07;;;;;;;58.92;9.98;;;-0.40;99.90;;;;;;5070262;28;20470;-78
2022/01/15 07:32:34;;;;;;;46.25;9.95;;;-0.40;99.90;;;;;;5068426;28;20051;-78
2022/01/15 07:35:01;;;;;;;63.05;10.23;;;-0.50;99.90;;;;;;5066820;28;20079;-78
2022/01/15 07:37:30;;;;;;;47.78;7.85;;;-0.50;99.90;;;;;;5071434;28;20046;-79
2022/01/15 07:39:58;;;;;;;53.35;7.90;;;-0.60;99.90;;;;;;5087719;28;20147;-77
2022/01/15 07:42:24;;;;;;;52.08;8.93;;;-0.60;99.90;;;;;;5077974;28;20076;-77
2022/01/15 07:44:51;;;;;;;46.20;6.53;;;-0.60;99.90;;;;;;5062682;28;20056;-77
2022/01/15 07:47:18;;;;;;;41.13;6.15;;;-0.70;99.90;;;;;;5063919;28;20068;-77
2022/01/15 07:49:45;;;;;;;41.63;6.65;;;-0.60;99.90;;;;;;5061473;28;20062;-77
2022/01/15 07:52:12;;;;;;;47.95;7.65;;;-0.60;99.90;;;;;;5054320;28;20131;-77
2022/01/15 07:54:39;;;;;;;47.50;6.80;;;-0.60;99.90;;;;;;5062764;28;20091;-77
2022/01/15 07:57:06;;;;;;;52.45;8.63;;;-0.60;99.90;;;;;;5063026;28;20056;-77
2022/01/15 07:59:33;;;;;;;51.97;7.25;;;-0.50;99.90;;;;;;5062812;28;20075;-77
2022/01/15 08:02:00;;;;;;;65.32;8.05;;;-0.40;99.90;;;;;;5065018;28;20088;-77
2022/01/15 08:04:27;;;;;;;50.38;7.03;;;-0.30;99.90;;;;;;5067032;28;20103;-76
2022/01/15 08:06:53;;;;;;;67.78;7.82;;;-0.20;99.90;;;;;;5062133;28;20479;-76
2022/01/15 08:09:20;;;;;;;52.80;8.85;;;-0.10;99.90;;;;;;5064666;28;20491;-77
2022/01/15 08:11:47;;;;;;;76.47;8.80;;;-0.10;99.90;;;;;;5061686;28;20142;-76
2022/01/15 08:14:14;;;;;;;48.08;7.82;;;0.00;99.90;;;;;;5061784;28;20152;-77
2022/01/15 08:16:41;;;;;;;65.07;8.45;;;0.10;99.90;;;;;;5062270;28;20047;-77
2022/01/15 08:19:08;;;;;;;49.05;6.75;;;0.30;99.90;;;;;;5060813;28;20120;-77
2022/01/15 08:21:34;;;;;;;63.85;7.45;;;0.30;99.90;;;;;;5063842;28;20048;-77
2022/01/15 08:24:01;;;;;;;48.97;6.57;;;0.40;99.90;;;;;;5064303;28;20040;-77
2022/01/15 08:26:28;;;;;;;71.78;9.23;;;0.50;99.90;;;;;;5084336;28;20123;-77
2022/01/15 08:28:56;;;;;;;53.35;8.38;;;0.60;99.90;;;;;;5062213;28;20051;-77
2022/01/15 08:31:23;;;;;;;50.70;9.07;;;0.60;99.90;;;;;;5064028;28;20052;-77
2022/01/15 08:33:49;;;;;;;76.22;11.90;;;0.70;99.90;;;;;;5064876;28;20083;-77
2022/01/15 08:36:17;;;;;;;48.83;9.55;;;0.90;99.90;;;;;;5059728;28;20226;-77
2022/01/15 08:38:45;;;;;;;60.45;9.98;;;1.00;99.90;;;;;;5069045;28;20084;-77
2022/01/15 08:41:28;;;;;;;53.00;7.63;;;1.10;99.90;;;;;;5062916;28;20397;-77
2022/01/15 08:43:55;;;;;;;48.63;7.85;;;1.20;99.90;;;;;;5063763;28;20051;-77
2022/01/15 08:46:22;;;;;;;60.97;7.53;;;1.30;99.90;;;;;;5054817;28;20052;-77
2022/01/15 08:48:50;;;;;;;61.35;8.00;;;1.40;99.90;;;;;;5051338;28;20076;-77
2022/01/15 08:51:16;;;;;;;56.33;8.23;;;1.50;99.90;;;;;;5057222;28;20049;-77
2022/01/15 08:53:43;;;;;;;64.40;8.30;;;1.70;99.90;;;;;;5062324;28;20057;-76
2022/01/15 08:56:10;;;;;;;59.45;7.10;;;1.90;99.90;;;;;;5057309;28;20080;-77
2022/01/15 08:58:37;;;;;;;64.07;6.65;;;2.00;99.90;;;;;;5059516;28;20044;-77
2022/01/15 09:01:04;;;;;;;53.08;6.97;;;2.10;99.90;;;;;;5059793;28;20557;-77
2022/01/15 09:03:33;;;;;;;51.72;7.45;;;2.10;99.90;;;;;;5061604;28;20818;-77
2022/01/15 09:06:00;;;;;;;68.78;8.05;;;2.20;99.90;;;;;;5064414;28;20144;-77
2022/01/15 09:08:28;;;;;;;63.35;7.70;;;2.20;99.90;;;;;;5056169;28;20458;-76
2022/01/15 09:10:55;;;;;;;39.63;5.63;;;2.30;99.90;;;;;;5067068;28;20056;-77
2022/01/15 09:13:21;;;;;;;57.15;7.57;;;2.30;99.90;;;;;;5059682;28;20131;-77
2022/01/15 09:15:50;;;;;;;77.93;8.38;;;2.40;99.90;;;;;;5064083;28;20136;-77
2022/01/15 09:18:19;;;;;;;57.10;7.53;;;2.50;99.90;;;;;;5054099;28;20152;-77
2022/01/15 09:20:47;;;;;;;60.17;7.93;;;2.50;99.90;;;;;;5051322;28;20091;-78
2022/01/15 09:23:15;;;;;;;52.80;7.78;;;2.70;99.90;;;;;;5059423;28;20748;-77
2022/01/15 09:25:41;;;;;;;52.67;7.50;;;3.00;99.90;;;;;;5067312;28;20600;-77
2022/01/15 09:30:53;;;;;;;68.72;7.13;;;3.80;99.90;;;;;;5050860;28;20084;-77
2022/01/15 09:33:20;;;;;;;65.90;8.35;;;4.40;99.90;;;;;;5062397;28;20059;-77
2022/01/15 09:35:47;;;;;;;65.68;8.52;;;4.50;99.90;;;;;;5070494;28;20083;-76
2022/01/15 09:38:16;;;;;;;55.67;8.55;;;4.30;99.90;;;;;;5069210;28;20135;-77
2022/01/15 09:40:44;;;;;;;68.78;8.18;;;4.10;99.90;;;;;;5055224;28;20048;-77
2022/01/15 09:43:12;;;;;;;47.10;9.13;;;3.90;99.90;;;;;;5062853;28;20139;-77
2022/01/15 09:45:44;;;;;;;56.92;10.48;;;4.00;99.90;;;;;;5063812;28;20068;-77
2022/01/15 09:48:13;;;;;;;58.55;7.25;;;4.30;99.90;;;;;;5095584;28;20052;-77
2022/01/15 09:50:43;;;;;;;59.20;8.05;;;4.40;99.90;;;;;;5065769;28;20563;-77
2022/01/15 09:53:13;;;;;;;53.10;6.03;;;4.30;99.90;;;;;;5060933;28;20179;-77
2022/01/15 09:55:40;;;;;;;51.30;7.80;;;4.30;99.90;;;;;;5066324;28;20138;-77
2022/01/15 09:58:07;;;;;;;51.83;8.20;;;4.30;99.90;;;;;;5062149;28;20048;-78
2022/01/15 10:00:33;;;;;;;73.85;10.13;;;4.60;99.90;;;;;;5056322;28;20183;-78
2022/01/15 10:03:01;;;;;;;58.65;8.45;;;5.00;99.90;;;;;;5067323;28;20048;-78
2022/01/15 10:05:29;;;;;;;54.33;8.15;;;5.30;99.90;;;;;;5069840;28;20060;-77
2022/01/15 10:07:59;;;;;;;53.42;7.63;;;5.10;99.90;;;;;;5065767;28;20810;-78
2022/01/15 10:10:28;;;;;;;78.95;10.45;;;4.90;99.90;;;;;;5063865;28;20099;-78
2022/01/15 10:12:55;;;;;;;65.15;8.73;;;5.10;99.90;;;;;;5067886;28;20083;-78
2022/01/15 10:15:22;;;;;;;64.82;7.85;;;5.50;99.90;;;;;;5065767;28;20139;-80
2022/01/15 10:17:49;;;;;;;54.63;8.07;;;5.50;99.90;;;;;;5059859;28;20141;-80
2022/01/15 10:20:23;;;;;;;70.10;8.52;;;5.80;99.90;;;;;;5061314;28;20547;-81
2022/01/15 10:22:52;;;;;;;78.05;8.15;;;6.90;99.90;;;;;;5080873;28;20080;-81
2022/01/15 10:25:21;;;;;;;58.55;8.93;;;7.50;99.90;;;;;;5069798;28;20036;-83
2022/01/15 10:27:56;;;;;;;58.33;7.45;;;7.70;99.90;;;;;;5075760;28;20512;-84
2022/01/15 10:30:30;;;;;;;49.10;8.57;;;7.30;99.90;;;;;;5075296;28;20040;-86
2022/01/15 10:33:00;;;;;;;57.33;8.10;;;6.80;99.90;;;;;;5067750;28;20307;-86
2022/01/15 10:35:33;;;;;;;50.65;8.50;;;7.00;99.90;;;;;;5074946;28;20068;-88
2022/01/15 10:38:07;;;;;;;56.00;8.40;;;6.90;99.90;;;;;;5081475;28;20048;-92
2022/01/15 10:40:44;;;;;;;50.88;8.25;;;6.90;99.90;;;;;;5070398;28;20154;-90
2022/01/15 10:43:31;;;;;;;40.72;5.78;;;7.10;99.90;;;;;;5067646;28;20132;-85
2022/01/15 10:46:01;;;;;;;62.92;7.57;;;7.00;99.90;;;;;;5068812;28;20481;-82
2022/01/15 10:48:35;;;;;;;49.47;7.57;;;7.00;99.90;;;;;;5067640;28;20049;-84
2022/01/15 10:51:03;;;;;;;46.50;6.68;;;7.10;99.90;;;;;;5070890;28;20072;-81
2022/01/15 10:53:44;;;;;;;51.33;7.60;;;7.00;99.90;;;;;;5068882;28;20732;-83
2022/01/15 10:56:13;;;;;;;44.42;6.43;;;6.80;99.90;;;;;;5073582;28;20075;-83
2022/01/15 10:58:42;;;;;;;42.85;6.70;;;6.80;99.90;;;;;;5070626;28;20049;-83
2022/01/15 11:01:25;;;;;;;38.30;7.55;;;7.00;99.90;;;;;;5062559;28;20055;-83
2022/01/15 11:03:52;;;;;;;38.33;5.85;;;7.70;99.90;;;;;;5067552;28;20094;-83
2022/01/15 11:06:39;;;;;;;46.10;6.20;;;8.00;99.90;;;;;;5078918;28;20722;-82
2022/01/15 11:09:06;;;;;;;32.65;6.05;;;7.60;99.90;;;;;;5076383;28;20231;-82
2022/01/15 11:11:55;;;;;;;47.63;7.53;;;7.30;99.90;;;;;;5078071;28;20076;-82
2022/01/15 11:14:22;;;;;;;45.08;6.13;;;6.90;99.90;;;;;;5070387;28;20131;-82
2022/01/15 11:16:49;;;;;;;45.00;6.05;;;6.80;99.90;;;;;;5069487;28;20841;-82
2022/01/15 11:19:17;;;;;;;46.22;5.60;;;6.80;99.90;;;;;;5069408;28;20048;-80
2022/01/15 11:21:44;;;;;;;52.22;6.05;;;6.60;99.90;;;;;;5070217;28;20128;-81
2022/01/15 11:24:23;;;;;;;38.33;5.95;;;6.80;99.90;;;;;;5071675;28;20127;-86
2022/01/15 11:26:52;;;;;;;37.70;5.63;;;7.20;99.90;;;;;;5067987;28;20108;-82
2022/01/15 11:29:18;;;;;;;37.17;6.00;;;8.20;99.90;;;;;;5067848;28;20128;-82
2022/01/15 11:31:46;;;;;;;41.85;5.63;;;9.20;99.90;;;;;;5068621;28;20084;-82
2022/01/15 11:34:26;;;;;;;34.50;5.50;;;9.60;99.90;;;;;;5071390;28;20449;-85
2022/01/15 11:36:53;;;;;;;43.20;5.78;;;9.50;99.90;;;;;;5067710;28;20048;-84
2022/01/15 11:39:29;;;;;;;67.88;9.00;;;9.20;99.90;;;;;;5075075;28;20044;-86
2022/01/15 11:41:56;;;;;;;39.13;6.32;;;8.80;99.90;;;;;;5072891;28;20084;-85
2022/01/15 11:44:29;;;;;;;42.85;5.47;;;8.50;99.90;;;;;;5067091;28;20044;-81
2022/01/15 11:47:00;;;;;;;39.65;6.05;;;8.40;99.90;;;;;;5069865;28;20072;-82
2022/01/15 11:49:27;;;;;;;31.75;7.57;;;8.30;99.90;;;;;;5065365;28;20094;-82
2022/01/15 11:52:22;;;;;;;41.00;7.63;;;8.40;99.90;;;;;;5070857;28;20138;-85
2022/01/15 11:55:07;;;;;;;41.28;6.93;;;8.60;99.90;;;;;;5079953;28;20175;-84
2022/01/15 11:57:43;;;;;;;46.50;7.10;;;8.70;99.90;;;;;;5079419;28;20101;-83
2022/01/15 12:00:22;;;;;;;36.15;8.18;;;8.90;99.90;;;;;;5070119;28;20127;-82
2022/01/15 12:03:03;;;;;;;39.92;7.05;;;9.50;99.90;;;;;;5078894;28;20045;-82
2022/01/15 12:05:32;;;;;;;29.58;7.30;;;9.50;99.90;;;;;;5072746;28;20039;-80
2022/01/15 12:07:59;;;;;;;39.28;5.78;;;9.30;99.90;;;;;;5072598;28;20052;-80
2022/01/15 12:10:38;;;;;;;37.33;6.28;;;9.10;99.90;;;;;;5064639;28;20127;-81
2022/01/15 12:13:19;;;;;;;26.00;4.93;;;8.90;99.90;;;;;;5070560;28;20465;-83
2022/01/15 12:15:49;;;;;;;33.75;5.47;;;8.70;99.90;;;;;;5064487;28;20771;-82
2022/01/15 12:18:21;;;;;;;27.67;5.75;;;8.60;99.90;;;;;;5076030;28;20707;-83
2022/01/15 12:20:50;;;;;;;36.20;5.65;;;8.60;99.90;;;;;;5055207;28;20080;-83
2022/01/15 12:23:21;;;;;;;30.05;7.40;;;8.40;99.90;;;;;;5062307;28;20071;-84
2022/01/15 12:25:51;;;;;;;41.75;5.95;;;8.30;99.90;;;;;;5070032;28;20126;-84
2022/01/15 12:28:18;;;;;;;43.17;6.50;;;8.30;99.90;;;;;;5069629;28;20056;-83
2022/01/15 12:30:48;;;;;;;38.03;6.13;;;8.40;99.90;;;;;;5074093;28;20523;-83
2022/01/15 12:33:23;;;;;;;;;;;8.50;99.90;;;;;;5069767;28;20052;-83
2022/01/15 12:35:56;;;;;;;29.80;5.68;;;8.60;99.90;;;;;;5064817;28;19931;-82
2022/01/15 12:38:28;;;;;;;39.88;4.93;;;9.00;99.90;;;;;;5085463;28;20048;-81
2022/01/15 12:41:05;;;;;;;39.08;6.60;;;9.40;99.90;;;;;;5071752;28;20056;-82
2022/01/15 12:43:36;;;;;;;28.95;5.55;;;9.30;99.90;;;;;;5066791;28;20118;-84
2022/01/15 12:46:10;;;;;;;37.80;5.93;;;9.10;99.90;;;;;;5066795;28;20063;-82
2022/01/15 12:48:39;;;;;;;27.92;6.25;;;9.10;99.90;;;;;;5067846;28;20083;-82
2022/01/15 12:51:11;;;;;;;37.60;5.78;;;8.80;99.90;;;;;;5078034;28;20125;-84
2022/01/15 12:53:44;;;;;;;37.53;7.55;;;8.90;99.90;;;;;;5075378;28;20131;-83
2022/01/15 12:56:13;;;;;;;35.97;6.95;;;8.70;99.90;;;;;;5082624;28;20093;-83
2022/01/15 12:58:41;;;;;;;32.05;5.30;;;8.60;99.90;;;;;;5086215;28;20075;-82
2022/01/15 13:01:18;;;;;;;25.42;5.88;;;8.50;99.90;;;;;;5066986;28;20128;-84
2022/01/15 13:03:45;;;;;;;33.15;6.15;;;8.50;99.90;;;;;;5064642;28;20048;-83
2022/01/15 13:06:12;;;;;;;33.53;6.40;;;8.60;99.90;;;;;;5070328;28;20132;-82
2022/01/15 13:08:43;;;;;;;33.70;4.70;;;8.80;99.90;;;;;;5073186;28;20155;-82
2022/01/15 13:13:52;;;;;;;31.38;5.72;;;9.30;99.90;;;;;;5072450;28;20141;-80